createdAt,value
2022-12-03T00:00:44.522Z,0.90
2022-12-03T00:06:46.323Z,1.00
2022-12-03T00:12:48.297Z,0.90
2022-12-03T00:18:50.261Z,1.00
2022-12-03T00:24:52.470Z,1.00
2022-12-03T00:30:54.590Z,1.00
2022-12-03T00:36:56.501Z,1.10
2022-12-03T00:42:58.417Z,1.10
2022-12-03T00:49:00.509Z,1.10
2022-12-03T00:55:02.383Z,1.20
2022-12-03T01:01:04.268Z,1.10
2022-12-03T01:07:06.199Z,1.00
2022-12-03T01:13:08.070Z,1.00
2022-12-03T01:19:11.207Z,1.00
2022-12-03T01:25:13.071Z,1.00
2022-12-03T01:31:33.565Z,1.00
2022-12-03T01:37:35.525Z,1.00
2022-12-03T01:43:38.010Z,1.00
2022-12-03T01:50:14.778Z,0.90
2022-12-03T01:56:18.577Z,1.00
2022-12-03T02:02:27.102Z,0.90
2022-12-03T02:08:32.010Z,1.00
2022-12-03T02:14:33.927Z,0.90
2022-12-03T02:20:44.320Z,0.90
2022-12-03T02:26:46.372Z,0.80
2022-12-03T02:32:50.035Z,0.80
2022-12-03T02:38:52.175Z,0.80
2022-12-03T02:44:57.506Z,0.90
2022-12-03T02:51:04.341Z,0.90
2022-12-03T02:57:06.492Z,1.00
2022-12-03T03:03:09.104Z,1.00
2022-12-03T03:09:11.004Z,1.00
2022-12-03T03:15:13.902Z,1.00
2022-12-03T03:21:15.974Z,1.00
2022-12-03T03:27:17.955Z,1.00
2022-12-03T03:33:20.222Z,1.00
2022-12-03T03:39:22.470Z,1.00
2022-12-03T03:45:29.161Z,0.80
2022-12-03T03:51:33.027Z,0.70
2022-12-03T03:57:35.133Z,0.60
2022-12-03T04:03:37.560Z,0.60
2022-12-03T04:09:39.782Z,0.60
2022-12-03T04:15:41.723Z,0.50
2022-12-03T04:22:02.132Z,0.60
2022-12-03T04:28:22.602Z,0.60
2022-12-03T04:34:43.483Z,0.50
2022-12-03T04:41:04.465Z,0.60
2022-12-03T04:47:15.035Z,0.50
2022-12-03T04:53:17.120Z,0.40
2022-12-03T04:59:19.399Z,0.30
2022-12-03T05:05:21.338Z,0.30
2022-12-03T05:11:23.226Z,0.20
2022-12-03T05:17:25.137Z,0.20
2022-12-03T05:23:27.050Z,0.30
2022-12-03T05:29:28.881Z,0.30
2022-12-03T05:35:31.045Z,0.20
2022-12-03T05:41:51.309Z,0.40
2022-12-03T05:47:55.336Z,0.40
2022-12-03T05:53:57.333Z,0.40
2022-12-03T05:59:59.153Z,0.40
2022-12-03T06:06:04.053Z,0.40
2022-12-03T06:12:07.041Z,0.50
2022-12-03T06:18:09.196Z,0.40
2022-12-03T06:24:11.478Z,0.50
2022-12-03T06:30:14.904Z,0.50
2022-12-03T06:36:22.580Z,0.50
2022-12-03T06:42:25.555Z,0.50
2022-12-03T06:48:30.837Z,0.50
2022-12-03T06:54:32.848Z,0.50
2022-12-03T07:00:34.850Z,0.50
2022-12-03T07:06:36.689Z,0.50
2022-12-03T07:12:38.550Z,0.60
2022-12-03T07:18:40.440Z,0.60
2022-12-03T07:24:42.934Z,0.60
2022-12-03T07:30:44.781Z,0.60
2022-12-03T07:36:46.635Z,0.60
2022-12-03T07:42:48.492Z,0.60
2022-12-03T07:48:50.423Z,0.60
2022-12-03T07:54:52.512Z,0.60
2022-12-03T08:00:54.628Z,0.60
2022-12-03T08:06:56.643Z,0.50
2022-12-03T08:12:59.665Z,0.60
2022-12-03T08:19:02.571Z,0.70
2022-12-03T08:25:13.046Z,0.70
2022-12-03T08:31:32.284Z,0.70
2022-12-03T08:37:36.378Z,0.80
2022-12-03T08:43:42.995Z,0.90
2022-12-03T08:49:51.916Z,0.90
2022-12-03T08:55:59.705Z,0.80
2022-12-03T09:02:01.860Z,0.70
2022-12-03T09:08:03.935Z,0.70
2022-12-03T09:14:06.477Z,0.70
2022-12-03T09:20:08.876Z,0.70
2022-12-03T09:26:10.779Z,0.70
2022-12-03T09:32:18.124Z,0.70
2022-12-03T09:38:20.529Z,0.60
2022-12-03T09:44:22.606Z,0.70
2022-12-03T09:50:26.840Z,0.80
2022-12-03T09:56:29.291Z,0.90
2022-12-03T10:02:31.569Z,1.00
2022-12-03T10:08:33.521Z,1.00
2022-12-03T10:14:35.403Z,1.10
2022-12-03T10:20:37.263Z,1.00
2022-12-03T10:26:42.210Z,1.10
2022-12-03T10:32:50.696Z,1.20
2022-12-03T10:39:13.190Z,1.30
2022-12-03T10:45:18.548Z,1.30
2022-12-03T10:51:21.815Z,1.20
2022-12-03T10:57:23.834Z,1.30
2022-12-03T11:03:27.987Z,1.40
2022-12-03T11:09:34.424Z,1.50
2022-12-03T11:15:45.260Z,1.50
2022-12-03T11:22:05.600Z,1.50
2022-12-03T11:28:31.023Z,1.40
2022-12-03T11:34:32.834Z,1.40
2022-12-03T11:40:39.564Z,1.40
2022-12-03T11:46:46.532Z,1.50
2022-12-03T11:52:53.721Z,1.40
2022-12-03T11:59:17.201Z,1.50
2022-12-03T12:05:26.957Z,1.70
2022-12-03T12:11:40.441Z,1.50
2022-12-03T12:17:42.319Z,1.40
2022-12-03T12:23:44.800Z,1.50
2022-12-03T12:29:53.004Z,1.40
2022-12-03T12:35:56.145Z,1.40
2022-12-03T12:41:58.554Z,1.40
2022-12-03T12:48:15.369Z,1.40
2022-12-03T12:54:18.527Z,1.30
2022-12-03T13:00:23.174Z,1.30
2022-12-03T13:06:31.177Z,1.50
2022-12-03T13:12:33.232Z,1.50
2022-12-03T13:18:47.684Z,1.50
2022-12-03T13:24:56.056Z,1.60
2022-12-03T13:31:23.141Z,1.50
2022-12-03T13:37:28.394Z,1.30
2022-12-03T13:43:38.755Z,1.30
2022-12-03T13:49:52.051Z,1.20
2022-12-03T13:56:00.437Z,1.20
2022-12-03T14:02:02.387Z,1.10
2022-12-03T14:08:06.029Z,1.00
2022-12-03T14:14:07.999Z,0.90
2022-12-03T14:20:10.296Z,0.80
2022-12-03T14:26:12.203Z,0.70
2022-12-03T14:32:14.245Z,0.70
